createdAt,value
2022-10-11T00:00:18.460Z,1.98
2022-10-11T00:02:46.187Z,1.83
2022-10-11T00:05:14.024Z,2.05
2022-10-11T00:07:41.781Z,2.05
2022-10-11T00:10:09.700Z,2.08
2022-10-11T00:12:37.360Z,2.33
2022-10-11T00:15:06.807Z,2.40
2022-10-11T00:17:35.113Z,1.95
2022-10-11T00:20:02.538Z,1.85
2022-10-11T00:22:30.240Z,2.70
2022-10-11T00:24:59.009Z,2.10
2022-10-11T00:27:27.007Z,2.10
2022-10-11T00:29:54.816Z,1.63
2022-10-11T00:32:22.476Z,1.98
2022-10-11T00:34:50.067Z,2.28
2022-10-11T00:37:18.786Z,2.17
2022-10-11T00:39:46.569Z,2.00
2022-10-11T00:42:15.827Z,2.70
2022-10-11T00:44:46.963Z,1.90
2022-10-11T00:47:20.640Z,2.03
2022-10-11T00:49:59.390Z,1.50
2022-10-11T00:52:46.174Z,2.10
2022-10-11T00:55:18.590Z,1.75
2022-10-11T00:57:48.476Z,1.70
2022-10-11T01:00:17.109Z,1.92
2022-10-11T01:02:44.624Z,1.80
2022-10-11T01:05:30.745Z,2.10
2022-10-11T01:08:00.820Z,1.75
2022-10-11T01:10:29.186Z,2.30
2022-10-11T01:12:59.341Z,2.00
2022-10-11T01:15:33.869Z,1.90
2022-10-11T01:18:14.604Z,1.80
2022-10-11T01:20:53.985Z,1.95
2022-10-11T01:23:45.750Z,1.98
2022-10-11T01:26:39.742Z,1.80
2022-10-11T01:29:36.053Z,1.90
2022-10-11T01:32:06.146Z,1.60
2022-10-11T01:34:41.268Z,2.40
2022-10-11T01:37:19.137Z,2.00
2022-10-11T01:39:52.749Z,2.17
2022-10-11T01:42:21.327Z,2.00
2022-10-11T01:44:51.463Z,1.77
2022-10-11T01:47:23.590Z,2.30
2022-10-11T01:50:00.079Z,2.17
2022-10-11T01:52:32.125Z,2.47
2022-10-11T01:55:10.191Z,1.77
2022-10-11T01:58:12.456Z,2.10
2022-10-11T02:00:51.818Z,1.90
2022-10-11T02:03:45.593Z,1.83
2022-10-11T02:06:25.056Z,1.73
2022-10-11T02:09:38.868Z,1.80
2022-10-11T02:12:16.384Z,1.98
2022-10-11T02:14:47.883Z,1.92
2022-10-11T02:17:22.176Z,1.73
2022-10-11T02:19:52.283Z,2.63
2022-10-11T02:22:24.769Z,2.03
2022-10-11T02:24:56.048Z,2.15
2022-10-11T02:27:27.655Z,2.10
2022-10-11T02:29:57.399Z,1.92
2022-10-11T02:32:26.781Z,2.05
2022-10-11T02:34:57.001Z,1.85
2022-10-11T02:37:48.787Z,2.20
2022-10-11T02:40:32.368Z,1.98
2022-10-11T02:43:05.002Z,2.20
2022-10-11T02:45:39.257Z,2.13
2022-10-11T02:48:09.484Z,2.15
2022-10-11T02:50:39.869Z,2.20
2022-10-11T02:53:08.958Z,2.78
2022-10-11T02:55:36.870Z,2.05
2022-10-11T02:58:04.317Z,2.60
2022-10-11T03:00:32.048Z,2.83
2022-10-11T03:02:59.766Z,2.85
2022-10-11T03:05:27.507Z,2.50
2022-10-11T03:07:55.280Z,2.60
2022-10-11T03:10:22.803Z,2.65
2022-10-11T03:12:50.720Z,2.90
2022-10-11T03:15:18.359Z,2.60
2022-10-11T03:17:46.005Z,2.78
2022-10-11T03:20:13.499Z,3.88
2022-10-11T03:22:41.219Z,3.00
2022-10-11T03:25:09.542Z,2.70
2022-10-11T03:27:37.282Z,2.35
2022-10-11T03:30:05.816Z,2.80
2022-10-11T03:32:33.417Z,3.20
2022-10-11T03:35:00.976Z,3.03
2022-10-11T03:37:28.458Z,2.85
2022-10-11T03:39:56.038Z,2.92
2022-10-11T03:42:23.542Z,3.20
2022-10-11T03:44:52.058Z,2.95
2022-10-11T03:47:20.108Z,3.10
2022-10-11T03:49:47.816Z,3.55
2022-10-11T03:52:15.606Z,3.25
2022-10-11T03:54:43.516Z,3.72
2022-10-11T03:57:11.068Z,4.60
2022-10-11T03:59:38.803Z,4.00
2022-10-11T04:02:06.518Z,3.53
2022-10-11T04:04:34.200Z,3.90
2022-10-11T04:07:01.865Z,3.15
2022-10-11T04:09:29.459Z,2.75
2022-10-11T04:11:56.903Z,3.08
2022-10-11T04:14:24.775Z,3.08
2022-10-11T04:16:52.494Z,3.10
2022-10-11T04:19:20.317Z,3.30
2022-10-11T04:21:47.783Z,3.13
2022-10-11T04:24:15.376Z,3.90
2022-10-11T04:26:42.843Z,3.20
2022-10-11T04:29:10.261Z,3.30
2022-10-11T04:31:38.003Z,3.45
2022-10-11T04:34:05.702Z,3.80
2022-10-11T04:36:34.096Z,3.78
2022-10-11T04:39:01.941Z,3.30
2022-10-11T04:41:29.592Z,3.53
2022-10-11T04:43:57.286Z,3.30
2022-10-11T04:46:25.117Z,3.22
2022-10-11T04:48:53.063Z,3.22
2022-10-11T04:51:20.658Z,3.53
2022-10-11T04:53:48.971Z,3.65
2022-10-11T04:56:18.540Z,3.50
2022-10-11T04:58:49.673Z,3.88
2022-10-11T05:01:17.383Z,3.78
2022-10-11T05:03:45.103Z,3.45
2022-10-11T05:06:13.455Z,3.88
2022-10-11T05:08:41.659Z,3.75
2022-10-11T05:11:15.824Z,4.28
2022-10-11T05:13:45.884Z,3.63
2022-10-11T05:16:14.289Z,3.35
2022-10-11T05:18:42.288Z,4.18
2022-10-11T05:21:15.090Z,3.47
2022-10-11T05:23:42.539Z,3.78
2022-10-11T05:26:10.174Z,3.67
2022-10-11T05:28:38.016Z,3.40
2022-10-11T05:31:06.255Z,3.97
2022-10-11T05:33:34.107Z,3.90
2022-10-11T05:36:02.152Z,3.78
2022-10-11T05:38:30.836Z,3.50
2022-10-11T05:41:02.812Z,3.70
2022-10-11T05:43:31.611Z,3.65
2022-10-11T05:45:59.801Z,3.65
2022-10-11T05:48:28.745Z,3.73
2022-10-11T05:51:05.250Z,3.38
2022-10-11T05:53:33.528Z,3.75
2022-10-11T05:56:01.549Z,3.58
2022-10-11T05:58:29.426Z,3.35
2022-10-11T06:00:57.232Z,3.83
2022-10-11T06:03:25.119Z,3.03
2022-10-11T06:05:56.773Z,3.63
2022-10-11T06:08:24.829Z,3.47
2022-10-11T06:10:52.381Z,3.60
2022-10-11T06:13:20.013Z,3.42
2022-10-11T06:15:47.673Z,3.38
2022-10-11T06:18:15.465Z,3.55
2022-10-11T06:20:42.895Z,3.90
2022-10-11T06:23:10.682Z,3.65
2022-10-11T06:25:38.305Z,4.15
2022-10-11T06:28:05.797Z,3.58
2022-10-11T06:30:33.246Z,3.28
2022-10-11T06:33:04.620Z,3.58
2022-10-11T06:35:32.692Z,3.58
2022-10-11T06:38:00.346Z,3.08
2022-10-11T06:40:27.891Z,3.47
2022-10-11T06:42:55.336Z,3.35
2022-10-11T06:45:22.872Z,3.53
2022-10-11T06:47:50.350Z,3.03
2022-10-11T06:50:29.926Z,3.22
2022-10-11T06:53:07.238Z,3.17
2022-10-11T06:55:34.814Z,3.70
2022-10-11T06:58:02.389Z,3.30
2022-10-11T07:00:30.036Z,3.25
2022-10-11T07:02:57.496Z,3.65
2022-10-11T07:05:25.116Z,3.55
2022-10-11T07:07:53.081Z,3.27
2022-10-11T07:10:20.807Z,3.20
2022-10-11T07:12:48.677Z,3.58
2022-10-11T07:15:16.387Z,3.10
2022-10-11T07:17:44.013Z,3.42
2022-10-11T07:20:12.367Z,2.80
2022-10-11T07:22:39.845Z,3.75
2022-10-11T07:25:07.965Z,3.63
2022-10-11T07:27:35.659Z,3.60
2022-10-11T07:30:03.505Z,3.38
2022-10-11T07:32:31.108Z,3.67
2022-10-11T07:34:58.654Z,3.63
2022-10-11T07:37:26.515Z,3.38
2022-10-11T07:39:59.054Z,3.10
2022-10-11T07:42:26.553Z,3.20
2022-10-11T07:44:54.229Z,3.00
2022-10-11T07:47:21.908Z,3.10
2022-10-11T07:49:50.142Z,3.10
2022-10-11T07:52:17.721Z,3.08
2022-10-11T07:54:48.262Z,3.05
2022-10-11T07:57:16.341Z,2.90
2022-10-11T07:59:49.286Z,3.20
2022-10-11T08:02:17.834Z,3.70
2022-10-11T08:04:45.497Z,4.32
2022-10-11T08:07:13.080Z,3.60
2022-10-11T08:09:40.873Z,3.55
2022-10-11T08:12:08.567Z,3.38
2022-10-11T08:14:36.225Z,3.33
2022-10-11T08:17:04.055Z,3.38
2022-10-11T08:19:31.771Z,3.00
2022-10-11T08:21:59.557Z,3.78
2022-10-11T08:24:27.244Z,3.97
2022-10-11T08:26:55.740Z,3.45
2022-10-11T08:29:23.238Z,3.35
2022-10-11T08:31:51.060Z,3.55
2022-10-11T08:34:18.564Z,3.85
2022-10-11T08:36:48.513Z,4.18
2022-10-11T08:39:16.044Z,4.40
2022-10-11T08:41:51.079Z,5.22
2022-10-11T08:45:09.445Z,4.57
2022-10-11T08:47:38.698Z,3.67
2022-10-11T08:50:08.630Z,3.42
2022-10-11T08:52:53.798Z,3.70
2022-10-11T08:55:28.896Z,3.72
2022-10-11T08:57:57.133Z,3.70
2022-10-11T09:00:30.699Z,3.27
2022-10-11T09:03:16.098Z,2.78
2022-10-11T09:06:16.471Z,3.30
2022-10-11T09:08:52.600Z,3.83
2022-10-11T09:11:45.287Z,2.97
2022-10-11T09:14:28.121Z,3.80
2022-10-11T09:17:01.735Z,3.20
2022-10-11T09:19:53.673Z,3.90
2022-10-11T09:22:50.284Z,3.42
2022-10-11T09:25:41.645Z,3.60
2022-10-11T09:28:21.643Z,3.58
2022-10-11T09:30:52.745Z,4.00
2022-10-11T09:33:38.884Z,4.10
2022-10-11T09:36:41.436Z,3.65
2022-10-11T09:39:23.822Z,3.70
2022-10-11T09:42:05.588Z,3.67
2022-10-11T09:44:34.606Z,4.47
2022-10-11T09:47:02.280Z,4.40
2022-10-11T09:49:40.437Z,4.25
2022-10-11T09:52:15.669Z,4.32
2022-10-11T09:54:56.058Z,4.00
2022-10-11T09:57:31.055Z,3.88
2022-10-11T10:00:02.857Z,4.18
2022-10-11T10:02:49.382Z,4.50
2022-10-11T10:05:26.496Z,3.92
2022-10-11T10:08:02.872Z,4.20
2022-10-11T10:10:43.858Z,4.15
2022-10-11T10:13:25.530Z,3.90
2022-10-11T10:15:56.518Z,4.18
2022-10-11T10:18:31.862Z,4.05
2022-10-11T10:21:00.364Z,4.10
2022-10-11T10:23:33.434Z,3.67
2022-10-11T10:26:13.366Z,4.20
2022-10-11T10:28:58.208Z,3.90
2022-10-11T10:31:44.460Z,3.75
2022-10-11T10:34:27.754Z,4.22
2022-10-11T10:37:27.501Z,3.92
2022-10-11T10:40:05.489Z,4.13
2022-10-11T10:42:33.214Z,4.05
2022-10-11T10:45:01.214Z,3.95
2022-10-11T10:47:47.410Z,4.10
2022-10-11T10:50:41.196Z,4.20
2022-10-11T10:53:25.609Z,4.45
2022-10-11T10:56:25.703Z,4.35
2022-10-11T10:59:11.527Z,4.63
2022-10-11T11:02:21.455Z,4.88
2022-10-11T11:05:31.191Z,4.43
2022-10-11T11:08:10.685Z,5.13
2022-10-11T11:11:02.776Z,5.40
2022-10-11T11:13:32.927Z,5.15
2022-10-11T11:16:18.811Z,5.05
2022-10-11T11:19:06.705Z,5.18
2022-10-11T11:21:51.364Z,4.85
2022-10-11T11:24:37.723Z,4.90
2022-10-11T11:27:25.415Z,5.07
2022-10-11T11:30:15.963Z,4.50
2022-10-11T11:32:49.159Z,4.70
2022-10-11T11:35:38.088Z,5.18
2022-10-11T11:40:57.457Z,4.82
2022-10-11T11:43:39.685Z,4.50
2022-10-11T11:46:22.155Z,4.70
2022-10-11T11:48:52.210Z,4.65
2022-10-11T11:51:32.791Z,3.85
2022-10-11T11:54:30.794Z,3.05
2022-10-11T11:57:02.613Z,3.30
2022-10-11T11:59:45.575Z,3.00
2022-10-11T12:02:37.322Z,3.38
2022-10-11T12:05:10.297Z,3.10
2022-10-11T12:07:47.884Z,2.70
2022-10-11T12:10:27.283Z,2.50
2022-10-11T12:13:29.715Z,3.05
2022-10-11T12:16:04.406Z,2.58
2022-10-11T12:18:38.220Z,2.63
2022-10-11T12:21:31.189Z,3.03
2022-10-11T12:24:09.211Z,2.88
2022-10-11T12:26:44.806Z,2.17
2022-10-11T12:29:18.401Z,2.15
2022-10-11T12:31:49.155Z,2.20
2022-10-11T12:34:33.989Z,2.10
2022-10-11T12:37:22.361Z,1.60
2022-10-11T12:39:51.841Z,1.70
2022-10-11T12:42:34.507Z,1.40
2022-10-11T12:45:11.060Z,1.50
2022-10-11T12:47:54.026Z,2.15
2022-10-11T12:50:40.278Z,1.83
2022-10-11T12:54:02.476Z,1.40
2022-10-11T12:56:40.085Z,1.60
2022-10-11T12:59:17.452Z,1.67
2022-10-11T13:01:57.990Z,1.50
2022-10-11T13:04:31.657Z,1.42
2022-10-11T13:07:06.905Z,1.67
2022-10-11T13:09:41.613Z,1.80
2022-10-11T13:12:20.821Z,2.05
2022-10-11T13:15:00.711Z,1.63
2022-10-11T13:17:38.223Z,1.70
2022-10-11T13:20:12.931Z,1.17
2022-10-11T13:22:40.641Z,1.98
2022-10-11T13:25:09.498Z,1.80
2022-10-11T13:27:38.034Z,1.55
2022-10-11T13:30:11.372Z,1.30
2022-10-11T13:32:38.946Z,1.73
2022-10-11T13:35:18.733Z,1.83
2022-10-11T13:37:49.513Z,1.88
2022-10-11T13:40:20.476Z,1.23
2022-10-11T13:42:49.623Z,1.42
2022-10-11T13:45:23.188Z,1.70
2022-10-11T13:47:52.507Z,1.77
2022-10-11T13:50:30.379Z,2.20
2022-10-11T13:53:23.608Z,1.85
2022-10-11T13:55:54.588Z,2.13
2022-10-11T13:58:36.692Z,2.20
2022-10-11T14:01:24.877Z,1.85
2022-10-11T14:03:59.971Z,2.50
2022-10-11T14:06:43.998Z,2.03
2022-10-11T14:09:31.467Z,2.50
2022-10-11T14:12:28.685Z,1.70
2022-10-11T14:14:57.551Z,1.92
2022-10-11T14:17:45.229Z,1.67
2022-10-11T14:20:23.885Z,2.15
2022-10-11T14:22:52.862Z,1.95
2022-10-11T14:25:21.369Z,1.88
2022-10-11T14:27:49.834Z,1.85
2022-10-11T14:30:26.234Z,1.92
2022-10-11T14:32:57.920Z,2.50
2022-10-11T14:35:28.318Z,2.00
2022-10-11T14:37:56.143Z,2.25
2022-10-11T14:40:27.475Z,1.85
2022-10-11T14:42:55.187Z,2.10
2022-10-11T14:45:23.189Z,2.20
2022-10-11T14:47:51.098Z,2.45
2022-10-11T14:50:36.623Z,1.60
2022-10-11T14:53:05.945Z,2.50
2022-10-11T14:55:36.787Z,1.92
2022-10-11T14:58:05.754Z,2.90
2022-10-11T15:00:33.979Z,3.20
2022-10-11T15:03:01.745Z,2.75
2022-10-11T15:05:33.914Z,2.90
2022-10-11T15:08:04.321Z,2.85
2022-10-11T15:10:37.333Z,2.30
2022-10-11T15:13:07.152Z,2.60
2022-10-11T15:15:37.002Z,2.28
2022-10-11T15:18:06.781Z,2.78
2022-10-11T15:20:38.795Z,2.20
2022-10-11T15:23:09.533Z,2.58
2022-10-11T15:25:39.017Z,2.38
2022-10-11T15:28:07.999Z,2.20
2022-10-11T15:30:41.296Z,2.83
2022-10-11T15:33:09.557Z,1.95
2022-10-11T15:35:37.325Z,2.45
2022-10-11T15:38:04.957Z,2.85
2022-10-11T15:40:37.008Z,2.13
2022-10-11T15:43:04.986Z,1.90
2022-10-11T15:45:32.569Z,2.70
2022-10-11T15:48:00.079Z,2.10
2022-10-11T15:50:37.513Z,2.75
2022-10-11T15:53:08.762Z,2.55
2022-10-11T15:55:39.627Z,2.28
2022-10-11T15:58:16.571Z,2.13
2022-10-11T16:00:45.784Z,2.42
2022-10-11T16:03:14.882Z,2.45
2022-10-11T16:05:43.160Z,2.60
2022-10-11T16:08:11.118Z,2.00
2022-10-11T16:10:41.488Z,2.40
2022-10-11T16:13:09.735Z,2.30
2022-10-11T16:15:39.957Z,2.08
2022-10-11T16:18:09.556Z,2.10
2022-10-11T16:20:42.870Z,2.33
2022-10-11T16:23:11.736Z,2.13
2022-10-11T16:25:39.995Z,2.67
2022-10-11T16:28:08.297Z,2.65
2022-10-11T16:30:40.043Z,2.65
2022-10-11T16:33:07.589Z,3.20
2022-10-11T16:35:35.085Z,2.58
2022-10-11T16:38:02.657Z,2.30
2022-10-11T16:40:30.309Z,1.60
2022-10-11T16:42:58.017Z,2.42
2022-10-11T16:45:25.532Z,3.33
2022-10-11T16:47:53.321Z,2.78
2022-10-11T16:50:21.196Z,2.42
2022-10-11T16:52:48.947Z,2.85
2022-10-11T16:55:16.979Z,2.67
2022-10-11T16:57:44.648Z,2.17
2022-10-11T17:00:13.226Z,2.88
2022-10-11T17:02:40.994Z,2.97
2022-10-11T17:05:08.529Z,2.40
2022-10-11T17:07:36.309Z,2.97
2022-10-11T17:10:04.638Z,2.22
2022-10-11T17:12:35.470Z,2.22
2022-10-11T17:15:03.619Z,2.50
2022-10-11T17:17:31.517Z,2.30
2022-10-11T17:19:59.382Z,2.42
2022-10-11T17:22:27.218Z,2.83
2022-10-11T17:24:57.336Z,2.70
2022-10-11T17:27:25.113Z,3.03
2022-10-11T17:29:52.844Z,3.28
2022-10-11T17:32:20.683Z,3.20
2022-10-11T17:34:48.577Z,3.20
2022-10-11T17:37:16.250Z,3.08
2022-10-11T17:39:44.383Z,1.80
2022-10-11T17:42:12.238Z,4.00
2022-10-11T17:44:40.242Z,3.60
2022-10-11T17:47:07.855Z,3.47
2022-10-11T17:49:35.506Z,3.88
2022-10-11T17:52:03.343Z,3.15
2022-10-11T17:54:31.243Z,3.67
2022-10-11T17:56:59.157Z,2.95
2022-10-11T17:59:27.699Z,2.72
2022-10-11T18:01:55.335Z,2.70
2022-10-11T18:04:26.776Z,3.10
2022-10-11T18:06:54.489Z,2.70
2022-10-11T18:09:23.780Z,3.55
2022-10-11T18:11:51.591Z,3.60
2022-10-11T18:14:19.869Z,3.58
2022-10-11T18:16:47.529Z,2.03
2022-10-11T18:19:15.548Z,2.72
2022-10-11T18:21:43.552Z,2.90
2022-10-11T18:24:16.554Z,3.13
2022-10-11T18:26:45.616Z,3.20
2022-10-11T18:29:13.708Z,3.08
2022-10-11T18:31:42.087Z,2.88
2022-10-11T18:34:13.028Z,2.92
2022-10-11T18:36:40.613Z,3.53
2022-10-11T18:39:11.629Z,2.97
2022-10-11T18:41:40.028Z,2.80
2022-10-11T18:44:09.426Z,2.92
2022-10-11T18:49:04.625Z,2.85
2022-10-11T18:51:36.139Z,3.58
2022-10-11T18:54:06.263Z,3.30
2022-10-11T18:56:37.070Z,3.03
2022-10-11T18:59:05.529Z,3.17
2022-10-11T19:01:38.805Z,4.18
2022-10-11T19:04:09.050Z,4.03
2022-10-11T19:06:41.115Z,3.67
2022-10-11T19:09:15.265Z,3.35
2022-10-11T19:11:42.998Z,3.72
2022-10-11T19:14:14.835Z,3.65
2022-10-11T19:16:45.592Z,3.20
2022-10-11T19:19:13.444Z,2.60
2022-10-11T19:21:42.126Z,3.35
2022-10-11T19:24:09.768Z,2.90
2022-10-11T19:26:40.038Z,3.08
2022-10-11T19:29:11.645Z,2.72
2022-10-11T19:31:45.155Z,2.65
2022-10-11T19:34:13.698Z,2.58
2022-10-11T19:36:42.832Z,2.80
2022-10-11T19:39:15.234Z,1.90
2022-10-11T19:41:43.962Z,2.17
2022-10-11T19:44:13.175Z,2.42
2022-10-11T19:49:27.311Z,2.22
2022-10-11T19:51:55.625Z,2.30
2022-10-11T19:54:23.789Z,2.50
2022-10-11T19:56:51.546Z,2.45
2022-10-11T19:59:19.677Z,2.40
2022-10-11T20:01:52.420Z,2.53
2022-10-11T20:07:09.891Z,1.95
2022-10-11T20:09:37.568Z,2.20
2022-10-11T20:12:05.677Z,2.08
2022-10-11T20:14:33.131Z,1.67
2022-10-11T20:17:00.823Z,2.08
2022-10-11T20:19:31.031Z,1.80
2022-10-11T20:22:00.199Z,1.67
2022-10-11T20:24:32.529Z,1.60
2022-10-11T20:27:04.928Z,1.48
2022-10-11T20:29:32.810Z,1.58
2022-10-11T20:32:00.389Z,1.60
2022-10-11T20:34:28.540Z,1.55
2022-10-11T20:36:56.004Z,1.17
2022-10-11T20:39:23.974Z,1.42
2022-10-11T20:41:51.539Z,1.77
2022-10-11T20:44:19.037Z,1.42
2022-10-11T20:46:46.560Z,1.80
2022-10-11T20:49:14.043Z,1.50
2022-10-11T20:51:42.695Z,1.92
2022-10-11T20:54:10.876Z,1.70
2022-10-11T20:56:39.580Z,1.40
2022-10-11T20:59:07.758Z,2.30
2022-10-11T21:01:38.710Z,2.42
2022-10-11T21:04:10.078Z,2.10
2022-10-11T21:06:39.914Z,1.83
2022-10-11T21:09:08.516Z,1.73
2022-10-11T21:11:37.911Z,1.58
2022-10-11T21:14:06.487Z,1.85
2022-10-11T21:16:34.315Z,1.27
2022-10-11T21:19:02.498Z,1.90
2022-10-11T21:21:30.586Z,2.20
2022-10-11T21:24:02.091Z,2.08
2022-10-11T21:26:30.353Z,2.22
2022-10-11T21:28:59.427Z,1.73
2022-10-11T21:31:31.290Z,2.25
2022-10-11T21:34:02.189Z,1.75
2022-10-11T21:36:31.046Z,1.70
2022-10-11T21:38:58.774Z,1.70
2022-10-11T21:41:29.129Z,1.77
2022-10-11T21:43:56.900Z,1.65
2022-10-11T21:46:47.502Z,1.70
2022-10-11T21:49:14.605Z,1.40
2022-10-11T21:51:42.678Z,1.63
2022-10-11T21:54:10.249Z,1.80
2022-10-11T21:56:37.704Z,1.75
2022-10-11T21:59:07.944Z,1.70
2022-10-11T22:01:39.156Z,1.40
2022-10-11T22:04:10.063Z,1.60
2022-10-11T22:06:38.690Z,1.80
2022-10-11T22:09:07.110Z,1.42
2022-10-11T22:11:35.538Z,1.05
2022-10-11T22:14:03.507Z,1.88
2022-10-11T22:16:33.126Z,1.80
2022-10-11T22:19:01.185Z,1.50
2022-10-11T22:21:28.861Z,1.10
2022-10-11T22:23:56.720Z,1.60
2022-10-11T22:26:27.074Z,1.52
2022-10-11T22:28:54.679Z,1.83
2022-10-11T22:31:23.199Z,1.42
2022-10-11T22:33:55.018Z,1.73
2022-10-11T22:36:24.353Z,1.75
2022-10-11T22:38:52.672Z,1.80
2022-10-11T22:41:20.532Z,1.77
2022-10-11T22:43:47.977Z,1.30
2022-10-11T22:46:15.482Z,1.45
2022-10-11T22:48:43.376Z,2.00
2022-10-11T22:51:10.819Z,1.75
2022-10-11T22:53:38.662Z,1.50
2022-10-11T22:56:06.328Z,1.90
2022-10-11T22:58:34.154Z,1.50
2022-10-11T23:01:13.082Z,1.63
2022-10-11T23:03:40.832Z,2.00
2022-10-11T23:06:08.786Z,1.70
2022-10-11T23:08:36.282Z,1.60
2022-10-11T23:11:05.667Z,1.70
2022-10-11T23:13:33.234Z,1.77
2022-10-11T23:18:38.656Z,1.42
2022-10-11T23:21:07.057Z,1.42
2022-10-11T23:23:35.074Z,1.90
2022-10-11T23:26:14.616Z,1.50
2022-10-11T23:28:43.249Z,1.77
2022-10-11T23:31:14.320Z,1.90
2022-10-11T23:33:41.823Z,1.67
2022-10-11T23:36:19.568Z,1.70
2022-10-11T23:38:54.997Z,1.90
2022-10-11T23:41:24.483Z,1.90
2022-10-11T23:43:52.635Z,1.92
2022-10-11T23:46:20.765Z,1.50
2022-10-11T23:48:48.499Z,1.70
2022-10-11T23:51:16.214Z,1.75
2022-10-11T23:53:43.687Z,2.03
2022-10-11T23:56:11.948Z,1.50
2022-10-11T23:58:39.685Z,1.48
